Latest Weather Observations for Mandora

IDW60801

Issued at 2:05 am WST Thursday 21 August 2014 (issued every 30 minutes, with the page automatically refreshed every 10 minutes)

About weather observations | Map of weather stations | Latest weather observations for WA | Other Formats
Station Details ID: 004019 Name: MANDORA Lat: -19.74 Lon: 120.84 Height: 7.5 m
Data from the previous 72 hours. | See also: Recent months at Mandora
Date/Time
WST
Temp
°C
App
Temp
°C
Dew
Point
Rel
Hum
%
Delta-T
°C
Wind Press
QNH
hPa
Press
MSL
hPa
Rain
since 9 am
mm
Dir
 
Spd
km/h
Gust
km/h
Spd
kts
Gust
kts
21/02:00am 12.3 - - - - E 9 13 5 7 1014.5 - 0.0
21/01:30am 13.8 - - - - S 9 11 5 6 1014.4 - 0.0
21/01:00am 14.1 - - - - S 11 13 6 7 1014.7 - 0.0
21/12:30am 14.0 - - - - S 11 13 6 7 1014.8 - 0.0
21/12:00am 14.0 - - - - S 13 15 7 8 1014.8 1014.8 0.0
 
Date/Time
WST
Temp
°C
App
Temp
°C
Dew
Point
Rel
Hum
%
Delta-T
°C
Wind Press
QNH
hPa
Press
MSL
hPa
Rain
since 9 am
mm
Dir
 
Spd
km/h
Gust
km/h
Spd
kts
Gust
kts
20/11:30pm 14.2 - - - - S 13 13 7 7 1014.8 - 0.0
20/11:00pm 14.8 - - - - SSW 13 15 7 8 1015.0 - 0.0
20/10:30pm 15.2 - - - - SSW 13 15 7 8 1015.1 - 0.0
20/10:00pm 15.1 - - - - SW 13 15 7 8 1015.2 - 0.0
20/09:30pm 15.8 - - - - SW 13 17 7 9 1015.3 - 0.0
20/09:00pm 16.2 - - - - SW 13 17 7 9 1015.3 1015.3 0.0
20/08:30pm 15.1 - - - - SW 13 15 7 8 1015.4 - 0.0
20/08:00pm 15.5 - - - - SW 9 11 5 6 1015.2 - 0.0
20/07:30pm 16.2 - - - - WSW 11 13 6 7 1014.8 - 0.0
20/07:00pm 16.7 - - - - W 11 13 6 7 1014.7 - 0.0
20/06:30pm 17.7 - - - - W 11 11 6 6 1014.3 - 0.0
20/06:00pm 20.0 - - - - W 9 13 5 7 1014.2 1014.2 0.0
20/05:30pm 22.8 - - - - WNW 11 15 6 8 1014.0 - 0.0
20/05:00pm 25.0 - - - - WNW 13 19 7 10 1013.9 - 0.0
20/04:30pm 26.1 - - - - NW 15 20 8 11 1013.8 - 0.0
20/04:00pm 26.9 - - - - NW 17 22 9 12 1013.6 - 0.0
20/03:30pm 28.2 - - - - NNW 17 22 9 12 1013.5 - 0.0
20/03:00pm 29.3 - - - - NNW 17 24 9 13 1013.6 1013.6 0.0
20/02:30pm 30.4 - - - - N 19 26 10 14 1013.8 - 0.0
20/02:00pm 29.9 - - - - N 17 24 9 13 1014.2 - 0.0
20/01:30pm 29.8 - - - - N 17 24 9 13 1014.6 - 0.0
20/01:00pm 29.7 - - - - N 17 26 9 14 1015.0 - 0.0
20/12:30pm 30.2 - - - - N 15 20 8 11 1015.5 - 0.0
20/12:00pm 29.4 - - - - N 15 20 8 11 1015.9 1015.9 0.0
20/11:30am 30.0 - - - - ENE 11 20 6 11 1016.3 - 0.0
20/11:00am 29.5 - - - - ENE 11 17 6 9 1016.7 - 0.0
20/10:30am 28.7 - - - - E 13 22 7 12 1017.0 - 0.0
20/10:00am 27.3 - - - - E 9 17 5 9 1017.2 - 0.0
20/09:30am 25.4 - - - - E 11 15 6 8 1017.4 - 0.0
20/09:00am 23.8 - - - - ESE 9 15 5 8 1017.4 1017.4 0.0
20/08:30am 21.7 - - - - SSE 7 11 4 6 1017.2 - 0.0
20/08:00am 19.4 - - - - S 11 17 6 9 1017.3 - 0.0
20/07:50am 17.7 - - - - SE 6 9 3 5 1017.2 - 0.0
20/07:30am 12.7 - - - - CALM 0 0 0 0 1017.0 - 0.0
20/07:00am 9.1 - - - - S 9 11 5 6 1016.7 - 0.0
20/06:30am 6.8 - - - - WSW 7 11 4 6 1016.5 - 0.0
20/06:00am 6.6 - - - - CALM 0 0 0 0 1016.2 1016.2 0.0
20/05:30am 6.3 - - - - NE 4 7 2 4 1015.9 - 0.0
20/05:00am 8.1 - - - - NNE 2 6 1 3 1015.6 - 0.0
20/04:30am 7.7 - - - - S 9 11 5 6 1015.3 - 0.0
20/04:00am 8.2 - - - - SSW 4 7 2 4 1015.3 - 0.0
20/03:30am 7.9 - - - - SW 9 11 5 6 1015.3 - 0.0
20/03:00am 9.1 - - - - SW 7 9 4 5 1015.2 1015.2 0.0
20/02:30am 11.2 - - - - SW 13 15 7 8 1015.3 - 0.0
20/02:00am 10.4 - - - - SW 11 13 6 7 1015.5 - 0.0
20/01:30am 10.5 - - - - SSW 11 13 6 7 1015.7 - 0.0
20/01:00am 12.5 - - - - SSW 9 11 5 6 1016.0 - 0.0
20/12:30am 12.1 - - - - SSW 13 13 7 7 1016.0 - 0.0
20/12:00am 13.2 - - - - S 13 15 7 8 1016.3 1016.3 0.0
 
Date/Time
WST
Temp
°C
App
Temp
°C
Dew
Point
Rel
Hum
%
Delta-T
°C
Wind Press
QNH
hPa
Press
MSL
hPa
Rain
since 9 am
mm
Dir
 
Spd
km/h
Gust
km/h
Spd
kts
Gust
kts
19/11:30pm 12.8 - - - - SW 11 13 6 7 1016.4 - 0.0
19/11:00pm 13.7 - - - - SSW 13 15 7 8 1016.6 - 0.0
19/10:30pm 14.3 - - - - SW 15 17 8 9 1016.6 - 0.0
19/10:00pm 13.7 - - - - SW 13 15 7 8 1016.7 - 0.0
19/09:30pm 14.2 - - - - SW 11 11 6 6 1016.8 - 0.0
19/09:00pm 14.2 - - - - SW 11 13 6 7 1016.8 1016.8 0.0
19/08:30pm 15.1 - - - - SW 11 13 6 7 1016.6 - 0.0
19/08:00pm 16.1 - - - - SW 11 13 6 7 1016.4 - 0.0
19/07:30pm 16.9 - - - - WSW 11 15 6 8 1016.0 - 0.0
19/07:00pm 17.4 - - - - WSW 11 13 6 7 1015.7 - 0.0
19/06:30pm 18.1 - - - - WSW 11 13 6 7 1015.3 - 0.0
19/06:00pm 19.9 - - - - W 9 13 5 7 1015.0 1015.0 0.0
19/05:30pm 22.1 - - - - NW 11 17 6 9 1014.8 - 0.0
19/05:00pm 24.3 - - - - NW 15 20 8 11 1014.8 - 0.0
19/04:30pm 27.7 - - - - NW 15 20 8 11 1014.7 - 0.0
19/04:00pm 28.2 - - - - NW 15 20 8 11 1014.7 - 0.0
19/03:30pm 28.8 - - - - NW 19 24 10 13 1014.6 - 0.0
19/03:00pm 29.5 - - - - WNW 15 22 8 12 1014.6 1014.6 0.0
19/02:30pm 29.4 - - - - NW 17 26 9 14 1014.9 - 0.0
19/02:00pm 29.7 - - - - NW 19 28 10 15 1015.1 - 0.0
19/01:30pm 29.2 - - - - NNW 19 28 10 15 1015.4 - 0.0
19/01:00pm 29.6 - - - - N 22 32 12 17 1015.7 - 0.0
19/12:30pm 30.0 - - - - NE 13 24 7 13 1016.4 - 0.0
19/12:00pm 30.3 - - - - NE 11 20 6 11 1017.0 1017.0 0.0
19/11:30am 29.5 - - - - ESE 13 24 7 13 1017.3 - 0.0
19/11:00am 28.9 - - - - E 13 22 7 12 1017.7 - 0.0
19/10:30am 28.1 - - - - E 19 26 10 14 1018.1 - 0.0
19/10:00am 27.9 - - - - E 17 28 9 15 1018.7 - 0.0
19/09:30am 26.5 - - - - E 13 22 7 12 1019.0 - 0.0
19/09:00am 24.5 - - - - E 15 22 8 12 1019.2 1019.2 0.0
19/08:30am 22.1 - - - - E 11 20 6 11 1019.2 - 0.0
19/08:00am 17.7 - - - - ESE 11 20 6 11 1019.0 - 0.0
19/07:30am 12.8 - - - - ESE 4 13 2 7 1018.7 - 0.0
19/07:00am 7.3 - - - - CALM 0 0 0 0 1018.5 - 0.0
19/06:30am 4.5 - - - - SE 4 7 2 4 1018.3 - 0.0
19/06:00am 4.9 - - - - SE 4 6 2 3 1018.1 1018.1 0.0
19/05:30am 5.8 - - - - SE 7 9 4 5 1017.8 - 0.0
19/05:00am 6.4 - - - - E 6 9 3 5 1017.5 - 0.0
19/04:30am 7.1 - - - - SE 7 7 4 4 1017.1 - 0.0
19/04:00am 9.3 - - - - ESE 7 11 4 6 1017.1 - 0.0
19/03:30am 11.0 - - - - SE 9 13 5 7 1017.1 - 0.0
19/03:00am 13.1 - - - - S 13 17 7 9 1017.1 1017.1 0.0
19/02:54am 13.0 - - - - S 11 17 6 9 1017.2 - 0.0
19/02:30am 8.0 - - - - S 7 11 4 6 1017.3 - 0.0
19/02:00am 8.4 - - - - S 11 11 6 6 1017.4 - 0.0
19/01:30am 8.8 - - - - SSW 9 11 5 6 1017.3 - 0.0
19/01:00am 9.1 - - - - S 6 7 3 4 1017.5 - 0.0
19/12:30am 12.5 - - - - SSW 13 15 7 8 1017.7 - 0.0
19/12:00am 10.5 - - - - SSW 11 15 6 8 1018.0 1018.0 0.0
 
Date/Time
WST
Temp
°C
App
Temp
°C
Dew
Point
Rel
Hum
%
Delta-T
°C
Wind Press
QNH
hPa
Press
MSL
hPa
Rain
since 9 am
mm
Dir
 
Spd
km/h
Gust
km/h
Spd
kts
Gust
kts
18/11:30pm 9.0 - - - - SSW 7 9 4 5 1018.2 - 0.0
18/11:00pm 10.9 - - - - SSW 7 9 4 5 1018.3 - 0.0
18/10:30pm 13.0 - - - - SSW 13 13 7 7 1018.3 - 0.0
18/10:00pm 11.3 - - - - SSW 7 7 4 4 1018.3 - 0.0
18/09:30pm 14.0 - - - - SW 11 13 6 7 1018.2 - 0.0
18/09:00pm 14.2 - - - - SW 11 13 6 7 1018.1 1018.1 0.0
18/08:30pm 14.2 - - - - SW 13 15 7 8 1017.8 - 0.0
18/08:00pm 15.0 - - - - WSW 11 11 6 6 1017.6 - 0.0
18/07:30pm 15.7 - - - - WSW 9 11 5 6 1017.3 - 0.0
18/07:00pm 16.5 - - - - WSW 11 13 6 7 1016.9 - 0.0
18/06:30pm 17.6 - - - - WSW 11 13 6 7 1016.7 - 0.0
18/06:00pm 19.6 - - - - W 9 11 5 6 1016.3 1016.3 0.0
18/05:30pm 22.8 - - - - NW 9 11 5 6 1016.1 - 0.0
18/05:00pm 24.7 - - - - NW 11 19 6 10 1015.9 - 0.0
18/04:30pm 26.0 - - - - NW 13 19 7 10 1015.9 - 0.0
18/04:00pm 26.9 - - - - NW 17 24 9 13 1015.7 - 0.0
18/03:30pm 27.3 - - - - NW 19 24 10 13 1015.6 - 0.0
18/03:00pm 27.9 - - - - NW 19 24 10 13 1015.6 1015.6 0.0
18/02:30pm 27.9 - - - - N 17 24 9 13 1015.6 - 0.0
18/02:00pm 29.4 - - - - E 11 20 6 11 1015.8 - 0.0
18/01:30pm 29.1 - - - - SSE 9 15 5 8 1016.3 - 0.0
18/01:00pm 28.5 - - - - NE 7 13 4 7 1016.7 - 0.0
18/12:30pm 29.0 - - - - E 15 20 8 11 1017.3 - 0.0
18/12:00pm 28.6 - - - - ESE 11 22 6 12 1018.0 1018.0 0.0
18/11:30am 28.5 - - - - ESE 15 24 8 13 1018.5 - 0.0
18/11:00am 27.6 - - - - ESE 20 28 11 15 1019.1 - 0.0
18/10:30am 27.4 - - - - E 19 30 10 16 1019.5 - 0.0
18/10:00am 26.1 - - - - E 19 28 10 15 1019.8 - 0.0
18/09:30am 24.8 - - - - E 20 32 11 17 1020.0 - 0.0
18/09:00am 23.3 - - - - E 20 35 11 19 1020.1 1020.1 0.0
18/08:30am 21.2 - - - - E 17 32 9 17 1020.2 - 0.0
18/08:00am 18.9 - - - - ESE 17 28 9 15 1020.1 - 0.0
18/07:30am 16.4 - - - - SE 17 26 9 14 1019.8 - 0.0
18/07:00am 12.8 - - - - SE 11 17 6 9 1019.5 - 0.0
18/06:30am 10.9 - - - - SSE 11 15 6 8 1019.2 - 0.0
18/06:00am 10.5 - - - - SE 11 13 6 7 1018.8 1018.8 0.0
18/05:30am 11.0 - - - - SSE 11 15 6 8 1018.3 - 0.0
18/05:00am 11.1 - - - - SSE 11 15 6 8 1017.9 - 0.0
18/04:30am 11.3 - - - - SSE 13 17 7 9 1017.7 - 0.0
18/04:00am 12.0 - - - - SSE 13 17 7 9 1017.6 - 0.0
18/03:30am 11.8 - - - - SSE 13 17 7 9 1017.6 - 0.0
18/03:00am 12.0 - - - - SSE 11 17 6 9 1017.7 1017.7 0.0
18/02:30am 12.4 - - - - SSE 15 19 8 10 1017.8 - 0.0

Other Formats:

Comma delimited format used in spreadsheet applications
http://www.bom.gov.au/fwo/IDW60801/IDW60801.94200.axf

JavaScript Object Notation format (JSON) in row-major order
http://www.bom.gov.au/fwo/IDW60801/IDW60801.94200.json